createdAt,value
2018-09-30T00:01:45.843Z,99.90
2018-09-30T00:04:13.131Z,99.90
2018-09-30T00:06:40.400Z,99.90
2018-09-30T00:09:08.107Z,99.90
2018-09-30T00:11:35.349Z,99.90
2018-09-30T00:14:02.664Z,99.90
2018-09-30T00:16:29.968Z,99.90
2018-09-30T00:18:57.219Z,99.90
2018-09-30T00:21:24.471Z,99.90
2018-09-30T00:23:57.316Z,99.90
2018-09-30T00:26:30.198Z,99.90
2018-09-30T00:28:57.499Z,99.90
2018-09-30T00:31:24.719Z,99.90
2018-09-30T00:33:57.736Z,99.90
2018-09-30T00:36:25.014Z,99.90
2018-09-30T00:38:52.264Z,99.90
2018-09-30T00:41:19.531Z,99.90
2018-09-30T00:43:46.758Z,99.90
2018-09-30T00:46:14.036Z,99.90
2018-09-30T00:48:41.296Z,99.90
2018-09-30T00:51:08.550Z,99.90
2018-09-30T00:53:35.765Z,99.90
2018-09-30T00:56:03.020Z,99.90
2018-09-30T00:58:30.263Z,99.90
2018-09-30T01:00:57.562Z,99.90
2018-09-30T01:03:24.817Z,99.90
2018-09-30T01:05:52.089Z,99.90
2018-09-30T01:08:19.378Z,99.90
2018-09-30T01:10:46.616Z,99.90
2018-09-30T01:13:13.895Z,99.90
2018-09-30T01:15:41.167Z,99.90
2018-09-30T01:18:08.507Z,99.90
2018-09-30T01:20:35.742Z,99.90
2018-09-30T01:23:02.985Z,99.90
2018-09-30T01:25:30.228Z,99.90
2018-09-30T01:27:57.464Z,99.90
2018-09-30T01:30:24.722Z,99.90
2018-09-30T01:32:51.955Z,99.90
2018-09-30T01:35:19.309Z,99.90
2018-09-30T01:37:46.549Z,99.90
2018-09-30T01:40:13.865Z,99.90
2018-09-30T01:42:41.122Z,99.90
2018-09-30T01:45:08.440Z,99.90
2018-09-30T01:47:35.662Z,99.90
2018-09-30T01:50:03.284Z,99.90
2018-09-30T01:52:50.327Z,99.90
2018-09-30T01:55:17.554Z,99.90
2018-09-30T01:57:44.827Z,99.90
2018-09-30T02:00:12.063Z,99.90
2018-09-30T02:02:39.331Z,99.90
2018-09-30T02:05:06.671Z,99.90
2018-09-30T02:07:33.903Z,99.90
2018-09-30T02:10:01.214Z,99.90
2018-09-30T02:12:28.527Z,99.90
2018-09-30T02:14:55.804Z,99.90
2018-09-30T02:17:23.166Z,99.90
2018-09-30T02:19:50.380Z,99.90
2018-09-30T02:22:17.643Z,99.90
2018-09-30T02:24:44.911Z,99.90
2018-09-30T02:27:12.227Z,99.90
2018-09-30T02:29:40.025Z,99.90
2018-09-30T02:32:07.257Z,99.90
2018-09-30T02:34:34.512Z,99.90
2018-09-30T02:37:01.853Z,99.90
2018-09-30T02:39:29.153Z,99.90
2018-09-30T02:41:56.667Z,99.90
2018-09-30T02:44:23.936Z,99.90
2018-09-30T02:46:51.280Z,99.90
2018-09-30T02:49:18.667Z,99.90
2018-09-30T02:51:45.969Z,99.90
2018-09-30T02:54:13.256Z,99.90
2018-09-30T02:56:40.519Z,99.90
2018-09-30T02:59:07.799Z,99.90
2018-09-30T03:01:35.070Z,99.90
2018-09-30T03:04:02.326Z,99.90
2018-09-30T03:06:35.340Z,99.90
2018-09-30T03:09:08.294Z,99.90
2018-09-30T03:11:35.517Z,99.90
2018-09-30T03:14:02.755Z,99.90
2018-09-30T03:16:30.011Z,99.90
2018-09-30T03:18:57.371Z,99.90
2018-09-30T03:21:24.603Z,99.90
2018-09-30T03:23:51.882Z,99.90
2018-09-30T03:26:19.110Z,99.90
2018-09-30T03:28:46.363Z,99.90
2018-09-30T03:31:13.644Z,99.90
2018-09-30T03:33:40.917Z,99.90
2018-09-30T03:36:08.142Z,99.90
2018-09-30T03:38:35.446Z,99.90
2018-09-30T03:41:02.670Z,99.90
2018-09-30T03:43:29.912Z,99.90
2018-09-30T03:45:57.223Z,99.90
2018-09-30T03:48:24.447Z,99.90
2018-09-30T03:50:51.724Z,99.90
2018-09-30T03:53:18.975Z,99.90
2018-09-30T03:55:46.280Z,99.90
2018-09-30T03:58:13.547Z,99.90
2018-09-30T04:00:40.800Z,99.90
2018-09-30T04:03:08.144Z,99.90
2018-09-30T04:05:35.467Z,99.90
2018-09-30T04:08:02.812Z,99.90
2018-09-30T04:10:30.078Z,99.90
2018-09-30T04:12:57.399Z,99.90
2018-09-30T04:15:24.820Z,99.90
2018-09-30T04:17:52.069Z,99.90
2018-09-30T04:20:19.329Z,99.90
2018-09-30T04:22:46.575Z,99.90
2018-09-30T04:25:13.889Z,99.90
2018-09-30T04:27:41.140Z,99.90
2018-09-30T04:30:08.458Z,99.90
2018-09-30T04:32:35.737Z,99.90
2018-09-30T04:35:03.070Z,99.90
2018-09-30T04:37:30.319Z,99.90
2018-09-30T04:39:57.601Z,99.90
2018-09-30T04:42:24.867Z,99.90
2018-09-30T04:44:52.244Z,99.90
2018-09-30T04:47:19.508Z,99.90
2018-09-30T04:49:46.772Z,99.90
2018-09-30T04:52:14.007Z,99.90
2018-09-30T04:54:41.263Z,99.90
2018-09-30T04:57:08.520Z,99.90
2018-09-30T04:59:35.781Z,99.90
2018-09-30T05:02:03.165Z,99.90
2018-09-30T05:04:30.470Z,99.90
2018-09-30T05:06:57.757Z,99.90
2018-09-30T05:09:24.999Z,99.90
2018-09-30T05:11:52.266Z,99.90
2018-09-30T05:14:19.498Z,99.90
2018-09-30T05:16:46.798Z,99.90
2018-09-30T05:19:14.067Z,99.90
2018-09-30T05:21:41.389Z,99.90
2018-09-30T05:24:08.675Z,99.90
2018-09-30T05:26:35.947Z,99.90
2018-09-30T05:29:03.198Z,99.90
2018-09-30T05:31:30.451Z,99.90
2018-09-30T05:33:57.683Z,99.90
2018-09-30T05:36:24.932Z,99.90
2018-09-30T05:38:52.227Z,99.90
2018-09-30T05:41:19.471Z,99.90
2018-09-30T05:43:46.768Z,99.90
2018-09-30T05:46:14.005Z,99.90
2018-09-30T05:48:41.243Z,99.90
2018-09-30T05:51:08.479Z,99.90
2018-09-30T05:53:35.763Z,99.90
2018-09-30T05:56:03.019Z,99.90
2018-09-30T05:58:30.302Z,99.90
2018-09-30T06:00:57.555Z,99.90
2018-09-30T06:03:24.796Z,99.90
2018-09-30T06:05:52.035Z,99.90
2018-09-30T06:08:19.300Z,99.90
2018-09-30T06:10:46.557Z,99.90
2018-09-30T06:13:13.791Z,99.90
2018-09-30T06:15:41.034Z,99.90
2018-09-30T06:18:08.393Z,99.90
2018-09-30T06:20:35.638Z,99.90
2018-09-30T06:23:02.892Z,99.90
2018-09-30T06:25:30.249Z,99.90
2018-09-30T06:27:57.580Z,99.90
2018-09-30T06:30:24.959Z,99.90
2018-09-30T06:32:53.104Z,99.90
2018-09-30T06:35:20.377Z,99.90
2018-09-30T06:37:47.642Z,99.90
2018-09-30T06:40:14.919Z,99.90
2018-09-30T06:42:42.124Z,99.90
2018-09-30T06:45:09.500Z,99.90
2018-09-30T06:47:36.676Z,99.90
2018-09-30T06:50:03.997Z,99.90
2018-09-30T06:52:31.240Z,99.90
2018-09-30T06:54:58.476Z,99.90
2018-09-30T06:57:25.736Z,99.90
2018-09-30T06:59:52.984Z,99.90
2018-09-30T07:02:20.231Z,99.90
2018-09-30T07:04:47.488Z,99.90
2018-09-30T07:07:14.732Z,99.90
2018-09-30T07:09:41.991Z,99.90
2018-09-30T07:12:09.280Z,99.90
2018-09-30T07:14:36.547Z,99.90
2018-09-30T07:17:03.808Z,99.90
2018-09-30T07:19:31.207Z,99.90
2018-09-30T07:21:58.451Z,99.90
2018-09-30T07:24:25.808Z,99.90
2018-09-30T07:26:53.112Z,99.90
2018-09-30T07:29:20.372Z,99.70
2018-09-30T07:31:47.607Z,93.30
2018-09-30T07:34:14.869Z,89.30
2018-09-30T07:36:42.125Z,78.80
2018-09-30T07:39:10.324Z,70.70
2018-09-30T07:41:37.624Z,62.00
2018-09-30T07:44:04.871Z,57.40
2018-09-30T07:46:32.163Z,54.70
2018-09-30T07:48:59.453Z,52.30
2018-09-30T07:51:27.924Z,50.80
2018-09-30T07:53:55.288Z,50.00
2018-09-30T07:56:22.540Z,47.70
2018-09-30T07:58:49.796Z,44.70
2018-09-30T08:01:17.071Z,42.90
2018-09-30T08:03:44.340Z,41.10
2018-09-30T08:06:11.605Z,41.20
2018-09-30T08:11:06.169Z,36.80
2018-09-30T08:13:33.429Z,37.20
2018-09-30T08:16:00.687Z,37.40
2018-09-30T08:18:28.024Z,36.80
2018-09-30T08:20:55.312Z,35.60
2018-09-30T08:23:22.543Z,35.60
2018-09-30T08:25:49.915Z,34.70
2018-09-30T08:28:17.167Z,35.00
2018-09-30T08:30:44.539Z,34.80
2018-09-30T08:35:39.012Z,34.30
2018-09-30T08:38:11.973Z,34.20
2018-09-30T08:41:13.448Z,32.20
2018-09-30T08:43:42.029Z,33.00
2018-09-30T08:46:09.772Z,32.10
2018-09-30T08:48:37.044Z,31.50
2018-09-30T08:51:04.297Z,31.30
2018-09-30T08:53:31.556Z,30.70
2018-09-30T08:55:59.132Z,30.50
2018-09-30T08:58:27.156Z,30.00
2018-09-30T09:00:54.452Z,29.80
2018-09-30T09:03:21.888Z,30.60
2018-09-30T09:05:49.156Z,30.30
2018-09-30T09:08:16.665Z,30.50
2018-09-30T09:10:44.093Z,35.70
2018-09-30T09:13:11.639Z,29.90
2018-09-30T09:15:38.964Z,30.20
2018-09-30T09:20:33.427Z,27.90
2018-09-30T09:25:27.961Z,27.80
2018-09-30T09:27:55.243Z,27.10
2018-09-30T09:30:22.625Z,27.70
2018-09-30T09:32:49.934Z,28.80
2018-09-30T09:35:17.282Z,30.00
2018-09-30T09:37:44.598Z,28.60
2018-09-30T09:40:11.936Z,27.60
2018-09-30T09:42:39.298Z,28.40
2018-09-30T09:47:33.984Z,27.00
2018-09-30T09:50:01.264Z,26.70
2018-09-30T09:52:28.554Z,43.40
2018-09-30T09:54:55.875Z,33.70
2018-09-30T09:59:50.496Z,42.80
2018-09-30T10:07:12.287Z,26.60
2018-09-30T10:12:07.355Z,27.60
2018-09-30T10:14:34.611Z,25.50
2018-09-30T10:17:01.933Z,25.70
2018-09-30T10:19:29.778Z,26.50
2018-09-30T10:21:57.035Z,29.10
2018-09-30T10:24:24.296Z,30.80
2018-09-30T10:26:51.541Z,30.90
2018-09-30T10:29:18.796Z,36.80
2018-09-30T10:31:46.040Z,45.50
2018-09-30T10:34:13.312Z,43.00
2018-09-30T10:36:40.563Z,27.90
2018-09-30T10:39:09.315Z,24.20
2018-09-30T10:41:36.370Z,24.60
2018-09-30T10:44:03.621Z,24.90
2018-09-30T10:46:30.855Z,23.60
2018-09-30T10:51:25.400Z,27.40
2018-09-30T10:53:52.735Z,25.50
2018-09-30T10:56:20.035Z,23.70
2018-09-30T10:58:47.349Z,23.80
2018-09-30T11:01:14.690Z,24.40
2018-09-30T11:03:41.960Z,24.40
2018-09-30T11:08:36.954Z,25.70
2018-09-30T11:11:04.336Z,25.70
2018-09-30T11:13:31.595Z,25.90
2018-09-30T11:15:58.904Z,23.90
2018-09-30T11:18:26.148Z,24.50
2018-09-30T11:20:53.403Z,25.70
2018-09-30T11:23:20.652Z,23.80
2018-09-30T11:28:15.129Z,33.10
2018-09-30T11:33:09.698Z,25.40
2018-09-30T11:35:36.959Z,26.20
2018-09-30T11:38:04.227Z,36.20
2018-09-30T11:40:31.488Z,24.20
2018-09-30T11:42:58.739Z,24.50
2018-09-30T11:47:53.719Z,22.70
2018-09-30T11:52:48.426Z,22.40
2018-09-30T11:55:15.789Z,22.80
2018-09-30T11:57:43.355Z,23.20
2018-09-30T12:00:23.120Z,23.40
2018-09-30T12:02:50.699Z,23.80
2018-09-30T12:05:17.976Z,23.80
2018-09-30T12:07:45.253Z,25.00
2018-09-30T12:10:12.518Z,23.80
2018-09-30T12:12:39.793Z,24.80
2018-09-30T12:15:07.073Z,26.60
2018-09-30T12:17:34.442Z,25.40
2018-09-30T12:20:01.816Z,25.90
2018-09-30T12:22:29.066Z,25.60
2018-09-30T12:24:56.336Z,26.00
2018-09-30T12:27:23.589Z,24.20
2018-09-30T12:29:50.827Z,23.80
2018-09-30T12:32:18.080Z,23.80
2018-09-30T12:34:45.373Z,24.80
2018-09-30T12:47:03.955Z,26.70
2018-09-30T12:49:31.299Z,22.40
2018-09-30T12:51:59.099Z,22.00
2018-09-30T12:54:26.452Z,22.20
2018-09-30T12:56:53.763Z,22.00
2018-09-30T12:59:21.024Z,22.60
2018-09-30T13:01:48.287Z,22.70
2018-09-30T13:04:15.608Z,23.80
2018-09-30T13:06:42.883Z,25.00
2018-09-30T13:11:37.834Z,22.80
2018-09-30T13:14:05.387Z,22.80
2018-09-30T13:16:32.643Z,23.50
2018-09-30T13:18:59.968Z,24.60
2018-09-30T13:21:27.287Z,23.60
2018-09-30T13:26:21.808Z,21.40
2018-09-30T13:31:16.354Z,53.10
2018-09-30T13:33:43.660Z,22.90
2018-09-30T13:36:18.409Z,47.00
2018-09-30T13:38:45.644Z,33.50
2018-09-30T13:51:05.505Z,39.20
2018-09-30T14:00:56.155Z,23.50
2018-09-30T14:03:23.516Z,23.60
2018-09-30T14:05:50.758Z,42.00
2018-09-30T14:08:18.010Z,40.10
2018-09-30T14:10:45.267Z,39.60
2018-09-30T14:13:12.522Z,38.90
2018-09-30T14:15:39.878Z,23.40
2018-09-30T14:23:01.740Z,22.80
2018-09-30T14:30:23.612Z,24.80
2018-09-30T14:35:18.172Z,24.30
2018-09-30T14:45:09.263Z,23.10
2018-09-30T14:47:36.527Z,23.30
2018-09-30T14:50:03.800Z,23.60
2018-09-30T14:52:31.024Z,23.60
2018-09-30T14:54:58.414Z,23.70
2018-09-30T15:04:50.012Z,26.60
2018-09-30T15:07:17.275Z,26.80
2018-09-30T15:09:44.627Z,34.30
2018-09-30T15:12:11.906Z,42.40
2018-09-30T15:14:39.155Z,25.30
2018-09-30T15:17:06.491Z,25.20
2018-09-30T15:19:33.799Z,25.80
2018-09-30T15:22:01.023Z,25.40
2018-09-30T15:24:28.355Z,26.30
2018-09-30T15:26:55.661Z,25.90
2018-09-30T15:29:22.984Z,25.90
2018-09-30T15:31:50.235Z,26.00
2018-09-30T15:36:44.777Z,52.40
2018-09-30T15:39:12.655Z,29.20
2018-09-30T15:41:41.229Z,28.90
2018-09-30T15:44:08.893Z,28.50
2018-09-30T15:46:36.130Z,28.40
2018-09-30T15:49:03.400Z,28.90
2018-09-30T15:51:30.648Z,29.40
2018-09-30T15:53:57.899Z,30.00
2018-09-30T15:56:25.197Z,30.30
2018-09-30T16:06:16.470Z,32.50
2018-09-30T16:08:43.717Z,36.30
2018-09-30T16:11:10.965Z,37.40
2018-09-30T16:13:38.234Z,38.60
2018-09-30T16:30:49.480Z,92.80
2018-09-30T16:38:13.344Z,76.00
2018-09-30T16:40:41.431Z,70.40
2018-09-30T16:43:08.703Z,74.90
2018-09-30T16:52:57.786Z,98.30
2018-09-30T16:55:25.171Z,91.50
2018-09-30T17:05:14.329Z,99.90
2018-09-30T17:07:41.673Z,97.90
2018-09-30T17:10:08.956Z,94.70
2018-09-30T17:12:36.192Z,96.20
2018-09-30T17:15:03.477Z,97.40
2018-09-30T17:17:30.720Z,98.10
2018-09-30T17:19:57.989Z,99.00
2018-09-30T17:22:25.241Z,99.90
2018-09-30T17:24:54.004Z,99.90
2018-09-30T17:27:21.361Z,99.90
2018-09-30T17:29:48.623Z,99.90
2018-09-30T17:32:15.902Z,99.90
2018-09-30T17:34:43.180Z,99.90
2018-09-30T17:37:10.445Z,99.90
2018-09-30T17:39:37.941Z,99.90
2018-09-30T17:42:05.278Z,99.90
2018-09-30T17:44:33.708Z,99.90
2018-09-30T17:47:01.387Z,99.90
2018-09-30T17:49:31.783Z,99.90
2018-09-30T17:54:27.267Z,99.90
2018-09-30T17:56:54.801Z,99.90
2018-09-30T17:59:22.054Z,99.90
2018-09-30T18:04:18.734Z,99.90
2018-09-30T18:09:16.263Z,99.90
2018-09-30T18:11:43.559Z,99.90
2018-09-30T18:14:10.811Z,99.90
2018-09-30T18:16:38.099Z,99.90
2018-09-30T18:19:05.389Z,99.90
2018-09-30T18:21:32.655Z,99.90
2018-09-30T18:23:59.917Z,99.90
2018-09-30T18:26:27.227Z,99.90
2018-09-30T18:28:54.496Z,99.90
2018-09-30T18:31:21.832Z,99.90
2018-09-30T18:33:49.191Z,99.90
2018-09-30T18:36:16.495Z,99.90
2018-09-30T18:38:43.775Z,99.90
2018-09-30T18:41:11.091Z,99.90
2018-09-30T18:43:38.375Z,99.90
2018-09-30T18:46:05.684Z,99.90
2018-09-30T18:48:35.088Z,99.90
2018-09-30T18:53:29.980Z,99.90
2018-09-30T18:55:57.300Z,99.90
2018-09-30T18:58:24.531Z,99.90
2018-09-30T19:00:51.836Z,99.90
2018-09-30T19:03:19.252Z,99.90
2018-09-30T19:05:46.499Z,99.90
2018-09-30T19:08:13.804Z,99.90
2018-09-30T19:10:41.099Z,99.90
2018-09-30T19:13:08.410Z,99.90
2018-09-30T19:15:35.683Z,99.90
2018-09-30T19:18:02.967Z,99.90
2018-09-30T19:20:30.260Z,99.90
2018-09-30T19:22:57.581Z,99.90
2018-09-30T19:25:24.789Z,99.90
2018-09-30T19:27:52.063Z,99.90
2018-09-30T19:30:19.355Z,99.90
2018-09-30T19:32:46.693Z,99.90
2018-09-30T19:35:15.022Z,99.90
2018-09-30T19:37:42.282Z,99.90
2018-09-30T19:40:09.560Z,99.90
2018-09-30T19:42:36.843Z,99.90
2018-09-30T19:45:04.375Z,99.90
2018-09-30T19:47:31.640Z,99.90
2018-09-30T19:49:58.909Z,99.90
2018-09-30T19:52:26.256Z,99.90
2018-09-30T19:54:53.621Z,99.90
2018-09-30T19:57:20.893Z,99.90
2018-09-30T19:59:48.327Z,99.90
2018-09-30T20:02:15.585Z,99.90
2018-09-30T20:04:43.103Z,99.90
2018-09-30T20:07:10.345Z,99.90
2018-09-30T20:09:37.655Z,99.90
2018-09-30T20:12:05.768Z,99.90
2018-09-30T20:14:33.020Z,99.90
2018-09-30T20:17:00.284Z,99.90
2018-09-30T20:19:27.587Z,99.90
2018-09-30T20:21:54.836Z,99.90
2018-09-30T20:24:22.231Z,99.90
2018-09-30T20:26:49.537Z,99.90
2018-09-30T20:29:16.785Z,99.90
2018-09-30T20:31:44.031Z,99.90
2018-09-30T20:34:11.363Z,99.90
2018-09-30T20:36:38.737Z,99.90
2018-09-30T20:41:36.349Z,99.90
2018-09-30T20:44:03.603Z,99.90
2018-09-30T20:46:30.862Z,99.90
2018-09-30T20:48:58.168Z,99.90
2018-09-30T20:51:25.388Z,99.90
2018-09-30T20:53:52.729Z,99.90
2018-09-30T20:56:19.992Z,99.90
2018-09-30T20:58:47.229Z,99.90
2018-09-30T21:01:14.488Z,99.90
2018-09-30T21:03:41.754Z,99.90
2018-09-30T21:06:26.715Z,99.90
2018-09-30T21:08:53.988Z,99.90
2018-09-30T21:11:21.728Z,99.90
2018-09-30T21:13:49.000Z,99.90
2018-09-30T21:16:16.628Z,99.90
2018-09-30T21:18:44.067Z,99.90
2018-09-30T21:21:11.328Z,99.90
2018-09-30T21:23:38.594Z,99.90
2018-09-30T21:26:05.983Z,99.90
2018-09-30T21:28:33.249Z,99.90
2018-09-30T21:31:00.576Z,99.90
2018-09-30T21:33:27.819Z,99.90
2018-09-30T21:35:56.516Z,99.90
2018-09-30T21:38:23.815Z,99.90
2018-09-30T21:40:51.087Z,99.90
2018-09-30T21:43:18.797Z,99.90
2018-09-30T21:45:46.289Z,99.90
2018-09-30T21:48:15.312Z,99.90
2018-09-30T21:50:42.688Z,99.90
2018-09-30T21:53:09.935Z,99.90
2018-09-30T21:55:37.292Z,99.90
2018-09-30T21:58:04.695Z,99.90
2018-09-30T22:00:40.163Z,99.90
2018-09-30T22:03:11.549Z,99.90
2018-09-30T22:05:38.827Z,99.90
2018-09-30T22:08:07.513Z,99.90
2018-09-30T22:10:34.892Z,99.90
2018-09-30T22:13:02.187Z,99.90
2018-09-30T22:15:29.528Z,99.90
2018-09-30T22:17:56.772Z,99.90
2018-09-30T22:20:24.092Z,99.90
2018-09-30T22:22:51.319Z,99.90
2018-09-30T22:25:18.633Z,99.90
2018-09-30T22:27:45.864Z,99.90
2018-09-30T22:30:13.260Z,99.90
2018-09-30T22:32:40.708Z,99.90
2018-09-30T22:35:08.308Z,99.90
2018-09-30T22:37:35.720Z,99.90
2018-09-30T22:40:03.119Z,99.90
2018-09-30T22:42:30.357Z,99.90
2018-09-30T22:44:57.640Z,99.90
2018-09-30T22:47:24.949Z,99.90
2018-09-30T22:49:52.648Z,99.90
2018-09-30T22:52:19.895Z,99.90
2018-09-30T22:54:47.132Z,99.90
2018-09-30T22:57:14.423Z,99.90
2018-09-30T22:59:41.701Z,99.90
2018-09-30T23:02:08.992Z,99.90
2018-09-30T23:04:44.312Z,99.90
2018-09-30T23:07:11.647Z,99.90
2018-09-30T23:09:38.856Z,99.90
2018-09-30T23:12:06.107Z,99.90
2018-09-30T23:14:33.319Z,99.90
2018-09-30T23:17:00.547Z,99.90
2018-09-30T23:19:27.767Z,99.90
2018-09-30T23:21:54.991Z,99.90
2018-09-30T23:24:22.218Z,99.90
2018-09-30T23:26:49.456Z,99.90
2018-09-30T23:29:16.672Z,99.90
2018-09-30T23:31:43.888Z,99.90
2018-09-30T23:34:11.095Z,99.90
2018-09-30T23:36:38.327Z,99.90
2018-09-30T23:39:07.738Z,99.90
2018-09-30T23:41:35.039Z,99.90
2018-09-30T23:44:02.255Z,99.90
2018-09-30T23:46:29.472Z,99.90
2018-09-30T23:48:56.708Z,99.90
2018-09-30T23:51:23.911Z,99.90
2018-09-30T23:53:51.158Z,99.90
2018-09-30T23:56:18.527Z,99.90
2018-09-30T23:58:45.789Z,99.90
